In Rescue
 
Open Full Screen Window  High Contrast Mode
Wind Gusting 24 knots
16
February 23, 2019 11:52 PM EST
Present Weather: Drizzle
Weather Information
Wind Direction
  170 °
Wind Speed
  16 kt (18 mph)
Wind Gust
  24 kt (28 mph)
Altimeter
29.59 in
Visibility
10 SM
Temperature
11° C
52° F
Dewpoint
10° C
50° F
Humidity
94%
1hr Rain Fall
00.02 in.
24hr Rain Fall
00.03 in.
Sky Condition
Overcast @ 700 ft
IFR

METAR KDLZ 240452Z AUTO 17016G24KT 10SM DZ OVC007 11/10 A2959 RMK AO2 P0002

FAA Disclaimer: The data displayed is for advisory purposes only and is not to be used for flight planning or operations.